Skip Navigation LinksHome page > Weather > Current weather Skip Navigation Links

Current Weather

Ben-Gurion Intl Apt, Tel Aviv, Israel

For information only: do not use for flight planning or navigation.
Latest weather
Observation time Friday, October 20, 2017 7:50 AM IDT
Local time Friday, October 20, 2017 7:57 AM IDT
Flight conditions Visual Meteorological Conditions
Winds
Wind direction variable
Wind speed 1 mph
Visibility 6.2 mi.
Sky condition
Ceiling unlimited
Cloud layer few clouds 2,500 ft.
Temperature 72°F
Dewpoint 64°F
Altimeter 29.97 in.Hg
Derived measurements
Relative humidity 78%
Density altitude 1199 ft.
Remarks
No significant changes expected in the next two hours.
METAR LLBG 200450Z VRB01KT 9999 FEW025 22/18 Q1015 NOSIG

Settings

Location code

InnerDrive.Weather 4.0.6144.1 Release CLR 4.0.30319.36366
Copyright ©2015 Inner Drive Technology. All rights reserved. Portions Copyright ©1986-2015 David Braverman.

Find weather

Site navigation


Skip Navigation Links

Place info

Page info

PayPal - The safer, easier way to pay online!

Return home.

Copyright ©2017 Inner Drive Technology. Purveyors of fine, hand-crafted computer software. Page printed 2017-10-20T04:57:36 UTC.